createdAt,value
2022-08-25T00:02:00.000Z,22.70
2022-08-25T00:07:06.391Z,22.60
2022-08-25T00:12:09.721Z,22.60
2022-08-25T00:17:12.896Z,22.50
2022-08-25T00:22:17.589Z,22.40
2022-08-25T00:27:21.062Z,22.30
2022-08-25T00:32:25.573Z,22.20
2022-08-25T00:37:30.270Z,22.10
2022-08-25T00:42:33.466Z,22.00
2022-08-25T00:47:37.033Z,22.00
2022-08-25T00:52:46.137Z,21.90
2022-08-25T00:57:53.644Z,21.90
2022-08-25T01:02:58.069Z,21.90
2022-08-25T01:08:06.771Z,21.80
2022-08-25T01:13:16.332Z,21.70
2022-08-25T01:18:20.720Z,21.60
2022-08-25T01:23:26.638Z,21.60
2022-08-25T01:28:29.891Z,21.60
2022-08-25T01:33:32.996Z,21.50
2022-08-25T01:38:37.813Z,21.50
2022-08-25T01:43:40.997Z,21.40
2022-08-25T01:48:44.168Z,21.40
2022-08-25T01:53:48.688Z,21.40
2022-08-25T01:58:51.885Z,21.30
2022-08-25T02:03:57.141Z,21.30
2022-08-25T02:09:05.664Z,21.20
2022-08-25T02:14:09.976Z,21.20
2022-08-25T02:19:13.769Z,21.20
2022-08-25T02:24:18.834Z,21.20
2022-08-25T02:29:21.960Z,21.10
2022-08-25T02:34:25.089Z,21.00
2022-08-25T02:39:29.642Z,21.00
2022-08-25T02:44:32.934Z,20.90
2022-08-25T02:49:36.388Z,20.90
2022-08-25T02:54:41.012Z,20.90
2022-08-25T02:59:47.324Z,20.90
2022-08-25T03:04:50.773Z,20.90
2022-08-25T03:09:55.312Z,20.80
2022-08-25T03:14:58.541Z,20.70
2022-08-25T03:20:01.720Z,20.70
2022-08-25T03:25:25.595Z,20.60
2022-08-25T03:30:29.468Z,20.60
2022-08-25T03:35:32.645Z,20.50
2022-08-25T03:40:38.156Z,20.40
2022-08-25T03:45:42.148Z,20.30
2022-08-25T03:50:50.516Z,20.20
2022-08-25T03:55:57.373Z,20.20
2022-08-25T04:01:01.007Z,20.10
2022-08-25T04:06:04.802Z,20.10
2022-08-25T04:11:11.823Z,20.10
2022-08-25T04:16:17.645Z,20.20
2022-08-25T04:21:22.184Z,20.10
2022-08-25T04:26:28.867Z,20.10
2022-08-25T04:31:33.093Z,20.00
2022-08-25T04:36:36.858Z,20.00
2022-08-25T04:41:41.429Z,20.00
2022-08-25T04:46:44.909Z,20.00
2022-08-25T04:51:48.119Z,20.00
2022-08-25T04:56:54.666Z,20.00
2022-08-25T05:02:03.489Z,20.00
2022-08-25T05:07:06.890Z,20.00
2022-08-25T05:12:11.901Z,20.00
2022-08-25T05:17:15.829Z,20.00
2022-08-25T05:22:18.985Z,20.00
2022-08-25T05:27:23.554Z,20.00
2022-08-25T05:32:26.789Z,20.10
2022-08-25T05:37:29.959Z,20.10
2022-08-25T05:42:34.544Z,20.10
2022-08-25T05:47:37.689Z,20.10
2022-08-25T05:52:40.892Z,20.20
2022-08-25T05:57:45.515Z,20.20
2022-08-25T06:02:49.724Z,20.30
2022-08-25T06:07:53.916Z,20.30
2022-08-25T06:12:58.515Z,20.40
2022-08-25T06:18:03.452Z,20.40
2022-08-25T06:23:06.785Z,20.50
2022-08-25T06:28:11.333Z,20.60
2022-08-25T06:33:14.889Z,20.70
2022-08-25T06:38:18.058Z,20.80
2022-08-25T06:43:23.485Z,20.90
2022-08-25T06:48:26.728Z,21.00
2022-08-25T06:53:29.872Z,21.10
2022-08-25T06:58:34.984Z,21.30
2022-08-25T07:03:38.360Z,21.40
2022-08-25T07:08:41.637Z,21.60
2022-08-25T07:13:46.849Z,21.70
2022-08-25T07:18:50.438Z,21.90
2022-08-25T07:23:53.793Z,22.00
2022-08-25T07:28:59.769Z,22.20
2022-08-25T07:34:20.520Z,22.40
2022-08-25T07:39:25.017Z,22.60
2022-08-25T07:44:29.593Z,22.90
2022-08-25T07:49:36.018Z,23.20
2022-08-25T07:54:43.538Z,23.50
2022-08-25T07:59:51.952Z,23.70
2022-08-25T08:04:55.525Z,24.00
2022-08-25T08:10:27.982Z,24.30
2022-08-25T08:15:24.257Z,24.50
2022-08-25T08:20:31.754Z,24.80
2022-08-25T08:26:10.363Z,25.10
2022-08-25T08:31:15.936Z,25.40
2022-08-25T08:36:19.232Z,25.70
2022-08-25T08:42:12.074Z,25.90
2022-08-25T08:47:27.748Z,26.20
2022-08-25T08:52:39.129Z,26.50
2022-08-25T09:03:04.021Z,27.00
2022-08-25T09:08:12.496Z,27.20
2022-08-25T09:13:26.082Z,27.40
2022-08-25T09:18:41.260Z,27.50
2022-08-25T09:24:11.759Z,27.60
2022-08-25T09:29:18.573Z,27.70
2022-08-25T09:34:28.856Z,27.80
2022-08-25T09:39:32.029Z,28.00
2022-08-25T09:44:40.997Z,28.10
2022-08-25T09:49:49.173Z,28.20
2022-08-25T09:54:53.166Z,28.40
2022-08-25T09:59:57.950Z,28.50
2022-08-25T10:05:19.765Z,28.60
2022-08-25T10:10:32.339Z,28.70
2022-08-25T10:15:38.722Z,28.70
2022-08-25T10:20:44.761Z,28.70
2022-08-25T10:25:59.095Z,28.70
2022-08-25T10:31:11.507Z,28.70
2022-08-25T10:36:21.443Z,28.80
2022-08-25T10:41:48.287Z,28.80
2022-08-25T10:47:03.450Z,28.90
2022-08-25T10:52:17.469Z,28.90
2022-08-25T10:57:28.995Z,29.00
2022-08-25T11:03:05.296Z,29.00
2022-08-25T11:08:15.099Z,29.00
2022-08-25T11:13:25.197Z,29.10
2022-08-25T11:18:31.882Z,29.10
2022-08-25T11:23:39.566Z,29.20
2022-08-25T11:28:53.548Z,29.20
2022-08-25T11:33:58.462Z,29.30
2022-08-25T11:39:18.027Z,29.40
2022-08-25T11:44:53.759Z,29.40
2022-08-25T11:50:03.523Z,29.60
2022-08-25T11:55:12.599Z,29.70
2022-08-25T12:00:36.190Z,29.80
2022-08-25T12:05:53.469Z,29.90
2022-08-25T12:11:09.975Z,30.00
2022-08-25T12:16:41.981Z,30.10
2022-08-25T12:21:46.884Z,30.20
2022-08-25T12:26:59.147Z,30.20
2022-08-25T12:32:19.768Z,30.20
2022-08-25T12:37:25.062Z,30.20
2022-08-25T12:42:36.149Z,30.30
2022-08-25T12:47:44.802Z,30.30
2022-08-25T12:52:49.267Z,30.40
2022-08-25T12:58:00.910Z,30.40
2022-08-25T13:09:20.565Z,30.50
2022-08-25T13:14:37.563Z,30.50
2022-08-25T13:19:41.491Z,30.50
2022-08-25T13:24:47.640Z,30.50
2022-08-25T13:29:58.114Z,30.50
2022-08-25T13:35:17.749Z,30.50
2022-08-25T13:40:26.726Z,30.60
2022-08-25T13:45:40.235Z,30.60
2022-08-25T13:50:45.132Z,30.70
2022-08-25T13:55:58.574Z,30.70
2022-08-25T14:01:23.516Z,30.70
2022-08-25T14:06:33.455Z,30.80
2022-08-25T14:11:44.534Z,30.90
2022-08-25T14:16:52.102Z,30.90
2022-08-25T14:22:02.036Z,30.90
2022-08-25T14:27:06.557Z,31.00
2022-08-25T14:32:11.901Z,31.10
2022-08-25T14:37:18.649Z,31.10
2022-08-25T14:42:22.713Z,31.20
2022-08-25T14:47:31.833Z,31.30
2022-08-25T14:52:35.447Z,31.30
2022-08-25T14:57:38.669Z,31.30
2022-08-25T15:02:46.684Z,31.40
2022-08-25T15:08:07.408Z,31.40
2022-08-25T15:13:10.684Z,31.40
2022-08-25T15:18:15.617Z,31.50
2022-08-25T15:23:19.502Z,31.50
2022-08-25T15:28:23.134Z,31.50
2022-08-25T15:33:31.092Z,31.60
2022-08-25T15:38:34.501Z,31.50
2022-08-25T15:43:37.807Z,31.50
2022-08-25T15:48:42.938Z,31.40
2022-08-25T15:53:46.133Z,31.40
2022-08-25T15:58:49.972Z,31.40
2022-08-25T16:03:55.793Z,31.40
2022-08-25T16:09:00.033Z,31.40
2022-08-25T16:14:03.431Z,31.40
2022-08-25T16:19:07.977Z,31.40
2022-08-25T16:24:11.110Z,31.40
2022-08-25T16:29:14.893Z,31.40
2022-08-25T16:34:19.473Z,31.40
2022-08-25T16:39:24.116Z,31.40
2022-08-25T16:44:27.382Z,31.30
2022-08-25T16:49:32.102Z,31.30
2022-08-25T16:54:52.709Z,31.20
2022-08-25T16:59:56.188Z,31.20
2022-08-25T17:05:00.944Z,31.10
2022-08-25T17:10:05.353Z,31.00
2022-08-25T17:15:09.448Z,30.90
2022-08-25T17:20:14.130Z,30.90
2022-08-25T17:25:17.703Z,30.80
2022-08-25T17:30:21.737Z,30.70
2022-08-25T17:35:26.722Z,30.60
2022-08-25T17:40:29.931Z,30.60
2022-08-25T17:45:33.261Z,30.50
2022-08-25T17:50:39.129Z,30.40
2022-08-25T17:55:43.269Z,30.30
2022-08-25T18:00:47.150Z,30.30
2022-08-25T18:05:51.815Z,30.20
2022-08-25T18:10:55.423Z,30.20
2022-08-25T18:15:58.620Z,30.00
2022-08-25T18:21:03.169Z,29.90
2022-08-25T18:26:06.816Z,29.70
2022-08-25T18:31:12.004Z,29.50
2022-08-25T18:36:17.725Z,29.40
2022-08-25T18:41:21.228Z,29.30
2022-08-25T18:46:24.398Z,29.20
2022-08-25T18:51:32.823Z,29.10
2022-08-25T18:56:36.647Z,29.00
2022-08-25T19:01:41.472Z,28.90
2022-08-25T19:06:46.860Z,28.80
2022-08-25T19:11:50.170Z,28.70
2022-08-25T19:16:54.085Z,28.50
2022-08-25T19:21:59.326Z,28.50
2022-08-25T19:27:03.303Z,28.40
2022-08-25T19:32:06.950Z,28.30
2022-08-25T19:37:13.400Z,28.20
2022-08-25T19:42:34.835Z,28.10
2022-08-25T19:47:41.358Z,28.10
2022-08-25T19:52:46.874Z,27.90
2022-08-25T19:57:53.536Z,27.80
2022-08-25T20:02:57.655Z,27.70
2022-08-25T20:08:02.484Z,27.60
2022-08-25T20:13:06.905Z,27.50
2022-08-25T20:18:10.675Z,27.40
2022-08-25T20:23:32.693Z,27.40
2022-08-25T20:28:36.001Z,27.30
2022-08-25T20:33:39.132Z,27.20
2022-08-25T20:38:44.968Z,27.10
2022-08-25T20:43:48.302Z,27.00
2022-08-25T20:48:51.416Z,26.90
2022-08-25T20:53:56.680Z,26.90
2022-08-25T20:59:00.968Z,26.80
2022-08-25T21:04:05.073Z,26.80
2022-08-25T21:09:15.684Z,26.70
2022-08-25T21:14:19.382Z,26.70
2022-08-25T21:19:26.587Z,26.60
2022-08-25T21:24:34.677Z,26.50
2022-08-25T21:29:38.842Z,26.50
2022-08-25T21:34:52.792Z,26.40
2022-08-25T21:39:58.214Z,26.30
2022-08-25T21:45:01.392Z,26.20
2022-08-25T21:50:06.276Z,26.10
2022-08-25T21:55:15.803Z,26.10
2022-08-25T22:00:19.230Z,26.00
2022-08-25T22:05:24.565Z,25.90
2022-08-25T22:10:29.132Z,25.90
2022-08-25T22:15:32.364Z,25.80
2022-08-25T22:20:35.487Z,25.80
2022-08-25T22:25:44.283Z,25.70
2022-08-25T22:30:47.486Z,25.70
2022-08-25T22:35:54.319Z,25.60
2022-08-25T22:41:04.281Z,25.50
2022-08-25T22:46:12.748Z,25.40
2022-08-25T22:51:18.001Z,25.30
2022-08-25T22:56:31.003Z,25.20
2022-08-25T23:01:34.781Z,25.20
2022-08-25T23:06:37.934Z,25.10
2022-08-25T23:11:42.444Z,25.00
2022-08-25T23:16:45.624Z,24.90
2022-08-25T23:22:06.260Z,24.80
2022-08-25T23:27:12.366Z,24.70
2022-08-25T23:32:16.264Z,24.60
2022-08-25T23:37:19.944Z,24.60
2022-08-25T23:42:24.464Z,24.50
2022-08-25T23:47:27.909Z,24.40
2022-08-25T23:52:31.126Z,24.30
2022-08-25T23:57:36.392Z,24.10
